Pagrindinis puslapis
METAR-TAF:

METAR-TAF

Oro uostai :

Hanamakis, Japonija

platuma: 39-26N, ilguma: 141-08E, Aukštis: 90 m

Dabartinis oras

Ataskaita buvo paskelbta 3 valandos ir 7 minutes, ne 10:00 UTC
Vėjas 5 kt iš Vakarų/Pietvakarių, svyruoja nuo Pietvakarių ir Vakarų
Temperatūra 5°C
Drėgmė 48%
Slėgis 1019 hPa
Matomumas 10 km arba daugiau
Mažai debesys ne aukštis 4000 ft
Su prošvaistėmis ne aukštis 13000 ft

METAR: RJSI 251000Z 25005KT 220V280 9999 FEW040 BKN130 05/M05 Q1019

Laikas: 22:07 (13:07 UTC)

Prognozė

Ataskaita buvo paskelbta 2 valandos ir 1 minutes, ne 11:06 UTC
Prognozė galioja nuo 25 metu 12 UTC su 26 metu 18 UTC
Vėjas 5 kt iš Šiaurės
Matomumas 10 km arba daugiau
Mažai debesys ne aukštis 2000 ft
Laikinai
nuo 26 metu 09 UTC su 26 metu 15 UTC
Matomumas: 3000 m
sniegas

TAF: RJSI 251106Z 2512/2618 01005KT 9999 FEW020 TEMPO 2609/2615 3000 -SHSN

Orai ataskaitas ir orų prognozės (METAR, TAF).

turimą stotys yra geltonos ir raudonos taškus žemėlapyje.

Perkelti pele per norėdami pamatyti stoties vardą.

Tada spustelėkite, norėdami matyti oro stebėjimo ir prognozės.

Norėdami pakeisti žemėlapį: spustelėkite ant žalios mygtukų su juodo kryžiaus žemyn,; žalią mygtuką su brūkšneliu, jei norite nutolinti; arba žalių rodyklių gretimoms žemėlapius.


METAR-TAF: